Terminal Aerodrome Forecast
Issued by NWS Charleston, WV

Current Version | Previous Version | Graphics & Text | Print | Product List | Glossary On
Versions: 1 2 3 4 5 6 7 8 9 10 11 12 13 14 15 16 17 18 19 20 21 22 23 24 25 26 27 28 29 30
037
FTUS41 KRLX 290251 AAB
TAFCRW
TAF AMD
KCRW 290251Z 2903/2924 VRB03KT 2SM BR OVC004
     FM290500 00000KT 1/2SM FG BKN003
     FM290600 00000KT 1/4SM FG VV001
     FM291300 00000KT 3SM BR BKN005
     FM291400 VRB03KT 6SM HZ BKN015
     FM291500 28004KT P6SM VCTS BKN040CB=

USA.gov is the U.S. government's official web portal to all federal, state and local government web resources and services.